aviador You're here:

SARC Decoded Metar

CORRIENTES in ARGENTINA
Report Time2018-06-25 01:00:00
UTC Time2018-06-25 02:03:23
Flight Rules ifr IFR
Wind140° at 06 kt
W.Decomp.*RWY 20: 3.9 kt HW 4.6 kt LCW
W.Rank140° ranks 1
Current wind is below 140° avg. (6.1)
Visibility9000 m
Phenomena:Light Drizzle
Clouds:Broken 008 Hf
Overcast 040 Hf
Expected CloudBase > 1,600 ft AGL from Temp-Dew spread
Ceiling800 ft
Temp12°C (ISA -3)
Dew Point08°C (77% RH)
AAT9.4°C
QNH1018 hPa
Density Alt-128 ft
Elevation203 ft
Report Wrong Elevation
Raw Report
METAR SARC 250100Z 14006KT 9000 -DZ BKN008 OVC040 12/08 Q1018=

Extra information for SARC:More info

Metar Taf Metar & Taf Last 4 Metars F.Rules Stats Wind Profile Meteogram Temp Stats Airport Information Weather charts Add Link Nearby VenuesMetar ALERT Operation Metar Decoded Social comments